createdAt,value
2022-10-28T00:00:20.718Z,8.20
2022-10-28T00:03:08.797Z,8.18
2022-10-28T00:05:41.786Z,8.16
2022-10-28T00:08:28.736Z,8.15
2022-10-28T00:11:18.906Z,8.14
2022-10-28T00:14:08.720Z,8.11
2022-10-28T00:16:51.174Z,8.09
2022-10-28T00:19:37.707Z,8.08
2022-10-28T00:22:17.774Z,8.08
2022-10-28T00:25:04.730Z,8.05
2022-10-28T00:27:44.727Z,8.06
2022-10-28T00:33:09.799Z,8.03
2022-10-28T00:35:56.740Z,8.01
2022-10-28T00:38:36.719Z,7.99
2022-10-28T00:41:36.736Z,7.97
2022-10-28T00:44:57.777Z,7.97
2022-10-28T00:47:43.777Z,7.93
2022-10-28T00:50:54.732Z,7.86
2022-10-28T00:53:42.738Z,7.84
2022-10-28T00:56:17.957Z,7.81
2022-10-28T00:59:06.809Z,7.78
2022-10-28T01:01:46.913Z,7.74
2022-10-28T01:04:40.723Z,7.73
2022-10-28T01:07:34.745Z,7.70
2022-10-28T01:10:21.775Z,7.69
2022-10-28T01:12:57.871Z,7.68
2022-10-28T01:16:02.737Z,7.66
2022-10-28T01:18:59.778Z,7.67
2022-10-28T01:22:11.779Z,7.68
2022-10-28T01:25:21.783Z,7.71
2022-10-28T01:28:10.808Z,7.70
2022-10-28T01:31:20.803Z,7.69
2022-10-28T01:34:23.777Z,7.59
2022-10-28T01:37:27.779Z,7.53
2022-10-28T01:40:27.779Z,7.45
2022-10-28T01:43:29.778Z,7.39
2022-10-28T01:46:40.805Z,7.34
2022-10-28T01:49:45.778Z,7.31
2022-10-28T01:52:42.799Z,7.31
2022-10-28T01:55:40.820Z,7.30
2022-10-28T01:58:32.806Z,7.30
2022-10-28T02:01:08.053Z,7.25
2022-10-28T02:03:54.801Z,7.21
2022-10-28T02:06:32.104Z,7.18
2022-10-28T02:09:31.787Z,7.17
2022-10-28T02:12:29.961Z,7.16
2022-10-28T02:15:34.804Z,7.19
2022-10-28T02:18:28.805Z,7.21
2022-10-28T02:21:37.779Z,7.20
2022-10-28T02:24:30.809Z,7.19
2022-10-28T02:27:23.809Z,7.18
2022-10-28T02:30:17.799Z,7.15
2022-10-28T02:33:07.784Z,7.15
2022-10-28T02:35:55.874Z,7.17
2022-10-28T02:38:48.810Z,7.16
2022-10-28T02:41:35.876Z,7.15
2022-10-28T02:44:31.642Z,7.10
2022-10-28T02:47:15.781Z,7.09
2022-10-28T02:50:17.800Z,7.07
2022-10-28T02:53:13.817Z,7.07
2022-10-28T02:56:10.848Z,7.03
2022-10-28T02:58:57.788Z,7.02
2022-10-28T03:01:30.978Z,7.04
2022-10-28T03:04:17.806Z,7.05
2022-10-28T03:06:50.888Z,7.05
2022-10-28T03:09:40.838Z,7.03
2022-10-28T03:12:13.917Z,7.01
2022-10-28T03:15:00.811Z,7.00
2022-10-28T03:17:40.868Z,6.98
2022-10-28T03:20:34.809Z,6.96
2022-10-28T03:23:21.810Z,6.99
2022-10-28T03:25:54.869Z,6.98
2022-10-28T03:28:41.827Z,7.00
2022-10-28T03:31:15.693Z,7.01
2022-10-28T03:34:02.817Z,7.00
2022-10-28T03:36:35.903Z,6.96
2022-10-28T03:39:22.815Z,6.92
2022-10-28T03:41:55.928Z,6.90
2022-10-28T03:44:42.817Z,6.85
2022-10-28T03:47:15.890Z,6.85
2022-10-28T03:50:02.816Z,6.84
2022-10-28T03:52:35.894Z,6.83
2022-10-28T03:55:22.827Z,6.79
2022-10-28T03:57:56.262Z,6.79
2022-10-28T04:00:43.818Z,6.77
2022-10-28T04:03:16.878Z,6.78
2022-10-28T04:06:03.816Z,6.78
2022-10-28T04:08:43.827Z,6.80
2022-10-28T04:11:30.820Z,6.80
2022-10-28T04:14:03.887Z,6.77
2022-10-28T04:16:50.820Z,6.75
2022-10-28T04:19:30.802Z,6.75
2022-10-28T04:22:17.930Z,6.73
2022-10-28T04:24:50.900Z,6.72
2022-10-28T04:27:37.839Z,6.69
2022-10-28T04:30:13.058Z,6.67
2022-10-28T04:32:59.830Z,6.67
2022-10-28T04:35:39.834Z,6.63
2022-10-28T04:38:33.817Z,6.58
2022-10-28T04:41:21.831Z,6.58
2022-10-28T04:44:02.819Z,6.55
2022-10-28T04:46:56.849Z,6.52
2022-10-28T04:49:43.837Z,6.50
2022-10-28T04:52:16.893Z,6.48
2022-10-28T04:55:03.844Z,6.48
2022-10-28T04:57:36.895Z,6.50
2022-10-28T05:00:23.859Z,6.48
2022-10-28T05:03:03.836Z,6.45
2022-10-28T05:05:57.819Z,6.47
2022-10-28T05:08:44.889Z,6.46
2022-10-28T05:11:17.926Z,6.43
2022-10-28T05:14:04.847Z,6.41
2022-10-28T05:16:37.931Z,6.41
2022-10-28T05:19:24.859Z,6.37
2022-10-28T05:21:57.944Z,6.33
2022-10-28T05:24:44.847Z,6.31
2022-10-28T05:27:17.960Z,6.32
2022-10-28T05:30:04.836Z,6.33
2022-10-28T05:32:44.870Z,6.26
2022-10-28T05:35:38.850Z,6.25
2022-10-28T05:38:25.851Z,6.26
2022-10-28T05:40:58.983Z,6.25
2022-10-28T05:43:45.867Z,6.28
2022-10-28T05:46:25.870Z,6.31
2022-10-28T05:49:13.856Z,6.30
2022-10-28T05:51:53.895Z,6.27
2022-10-28T05:54:40.861Z,6.30
2022-10-28T05:57:13.934Z,6.30
2022-10-28T06:00:00.887Z,6.30
2022-10-28T06:02:40.865Z,6.31
2022-10-28T06:05:34.889Z,6.32
2022-10-28T06:08:21.864Z,6.36
2022-10-28T06:11:05.306Z,6.37
2022-10-28T06:13:52.341Z,6.38
2022-10-28T06:16:25.404Z,6.38
2022-10-28T06:19:12.350Z,6.38
2022-10-28T06:21:45.460Z,6.40
2022-10-28T06:24:32.365Z,6.41
2022-10-28T06:27:12.350Z,6.42
2022-10-28T06:29:59.361Z,6.44
2022-10-28T06:32:39.386Z,6.45
2022-10-28T06:35:33.371Z,6.48
2022-10-28T06:38:20.371Z,6.50
2022-10-28T06:40:53.499Z,6.53
2022-10-28T06:43:40.366Z,6.55
2022-10-28T06:46:13.494Z,6.56
2022-10-28T06:49:01.882Z,6.51
2022-10-28T06:51:34.972Z,6.52
2022-10-28T06:54:21.910Z,6.54
2022-10-28T06:56:55.020Z,6.55
2022-10-28T06:59:41.905Z,6.58
2022-10-28T07:02:25.015Z,6.64
2022-10-28T07:05:18.919Z,6.66
2022-10-28T07:08:05.906Z,6.68
2022-10-28T07:10:39.016Z,6.65
2022-10-28T07:13:25.931Z,6.66
2022-10-28T07:16:11.919Z,6.63
2022-10-28T07:18:58.939Z,6.67
2022-10-28T07:21:38.927Z,6.69
2022-10-28T07:27:10.935Z,6.76
2022-10-28T07:30:04.940Z,6.78
2022-10-28T07:32:52.232Z,6.83
2022-10-28T07:35:26.033Z,6.87
2022-10-28T07:38:12.961Z,6.90
2022-10-28T07:40:46.043Z,6.98
2022-10-28T07:43:32.969Z,7.07
2022-10-28T07:46:06.074Z,7.16
2022-10-28T07:48:52.942Z,7.21
2022-10-28T07:51:32.959Z,7.28
2022-10-28T07:54:19.956Z,7.34
2022-10-28T07:56:59.959Z,7.38
2022-10-28T07:59:46.956Z,7.46
2022-10-28T08:02:32.985Z,7.50
2022-10-28T08:05:26.983Z,7.58
2022-10-28T08:08:14.057Z,7.62
2022-10-28T08:10:47.025Z,7.63
2022-10-28T08:13:36.782Z,7.69
2022-10-28T08:16:13.017Z,7.70
2022-10-28T08:19:01.961Z,7.71
2022-10-28T08:21:39.016Z,7.74
2022-10-28T08:24:25.926Z,7.75
2022-10-28T08:27:17.993Z,7.80
2022-10-28T08:30:04.931Z,7.90
2022-10-28T08:32:38.002Z,8.01
2022-10-28T08:35:24.939Z,8.12
2022-10-28T08:37:58.002Z,8.23
2022-10-28T08:41:00.965Z,8.34
2022-10-28T08:43:57.033Z,8.41
2022-10-28T08:46:54.920Z,8.48
2022-10-28T08:49:36.946Z,8.54
2022-10-28T08:52:58.925Z,8.61
2022-10-28T08:55:56.944Z,8.70
2022-10-28T08:58:44.939Z,8.78
2022-10-28T09:01:48.282Z,8.87
2022-10-28T09:05:02.929Z,8.96
2022-10-28T09:07:56.960Z,9.05
2022-10-28T09:10:58.941Z,9.18
2022-10-28T09:13:48.225Z,9.31
2022-10-28T09:16:51.948Z,9.43
2022-10-28T09:19:46.183Z,9.56
2022-10-28T09:22:53.249Z,9.66
2022-10-28T09:25:38.951Z,9.76
2022-10-28T09:28:54.002Z,9.85
2022-10-28T09:31:54.948Z,9.96
2022-10-28T09:34:53.991Z,10.04
2022-10-28T09:37:53.045Z,10.14
2022-10-28T09:40:42.966Z,10.21
2022-10-28T09:43:40.950Z,10.24
2022-10-28T09:46:33.260Z,10.24
2022-10-28T09:49:13.045Z,10.27
2022-10-28T09:52:18.956Z,10.30
2022-10-28T09:55:17.995Z,10.33
2022-10-28T09:58:04.962Z,10.35
2022-10-28T10:00:38.084Z,10.43
2022-10-28T10:03:24.970Z,10.55
2022-10-28T10:06:09.980Z,10.65
2022-10-28T10:08:56.977Z,10.71
2022-10-28T10:11:40.034Z,10.75
2022-10-28T10:14:32.986Z,10.82
2022-10-28T10:17:25.979Z,10.92
2022-10-28T10:20:16.003Z,11.01
2022-10-28T10:22:51.171Z,11.10
2022-10-28T10:25:38.006Z,11.19
2022-10-28T10:28:23.056Z,11.25
2022-10-28T10:31:13.277Z,11.35
2022-10-28T10:33:47.444Z,11.42
2022-10-28T10:36:37.988Z,11.48
2022-10-28T10:39:11.122Z,11.52
2022-10-28T10:41:57.996Z,11.57
2022-10-28T10:44:38.061Z,11.60
2022-10-28T10:47:27.004Z,11.64
2022-10-28T10:50:23.114Z,11.67
2022-10-28T10:53:30.005Z,11.70
2022-10-28T10:56:24.998Z,11.71
2022-10-28T10:59:22.020Z,11.75
2022-10-28T11:01:55.210Z,11.76
2022-10-28T11:04:43.025Z,11.75
2022-10-28T11:07:22.097Z,11.75
2022-10-28T11:10:08.995Z,11.73
2022-10-28T11:12:50.012Z,11.77
2022-10-28T11:15:45.002Z,11.80
2022-10-28T11:18:32.026Z,11.85
2022-10-28T11:21:17.150Z,11.85
2022-10-28T11:24:25.035Z,11.84
2022-10-28T11:27:43.019Z,11.87
2022-10-28T11:30:52.070Z,11.94
2022-10-28T11:34:01.007Z,11.96
2022-10-28T11:36:58.090Z,11.93
2022-10-28T11:40:20.022Z,11.98
2022-10-28T11:43:07.106Z,12.05
2022-10-28T11:46:18.013Z,12.06
2022-10-28T11:48:58.028Z,12.09
2022-10-28T11:52:07.037Z,12.11
2022-10-28T11:54:57.251Z,12.12
2022-10-28T11:57:57.335Z,12.11
2022-10-28T12:00:50.032Z,12.10
2022-10-28T12:03:26.145Z,12.12
2022-10-28T12:06:53.027Z,12.12
2022-10-28T12:10:00.038Z,12.14
2022-10-28T12:13:06.029Z,12.12
2022-10-28T12:16:09.056Z,12.08
2022-10-28T12:19:11.038Z,12.05
2022-10-28T12:22:18.017Z,12.01
2022-10-28T12:25:10.114Z,11.99
2022-10-28T12:27:55.044Z,11.96
2022-10-28T12:30:48.064Z,11.94
2022-10-28T12:33:38.056Z,11.95
2022-10-28T12:36:35.046Z,11.94
2022-10-28T12:39:17.107Z,11.94
2022-10-28T12:42:22.059Z,11.95
2022-10-28T12:44:57.122Z,11.96
2022-10-28T12:47:58.356Z,11.96
2022-10-28T12:50:45.052Z,11.99
2022-10-28T12:53:50.052Z,12.02
2022-10-28T12:56:44.067Z,12.04
2022-10-28T12:59:41.116Z,12.05
2022-10-28T13:02:44.073Z,12.07
2022-10-28T13:05:35.668Z,12.09
2022-10-28T13:08:37.081Z,12.10
2022-10-28T13:11:46.074Z,12.12
2022-10-28T13:15:04.170Z,12.14
2022-10-28T13:18:40.053Z,12.12
2022-10-28T13:21:51.092Z,12.12
2022-10-28T13:24:35.141Z,12.11
2022-10-28T13:27:23.096Z,12.09
2022-10-28T13:30:07.066Z,12.09
2022-10-28T13:33:07.112Z,12.09
2022-10-28T13:35:41.171Z,12.09
2022-10-28T13:38:32.070Z,12.07
2022-10-28T13:41:05.205Z,12.05
2022-10-28T13:43:58.068Z,12.03
2022-10-28T13:47:09.296Z,11.99
2022-10-28T13:50:14.086Z,11.96
2022-10-28T13:52:59.178Z,11.92
2022-10-28T13:55:53.074Z,11.89
2022-10-28T13:58:41.085Z,11.84
2022-10-28T14:02:33.707Z,11.80
2022-10-28T14:05:31.093Z,11.76
2022-10-28T14:08:47.094Z,11.70
2022-10-28T14:11:32.493Z,11.64
2022-10-28T14:14:23.094Z,11.60
2022-10-28T14:17:03.081Z,11.56
2022-10-28T14:20:03.127Z,11.50
2022-10-28T14:22:58.102Z,11.46
2022-10-28T14:25:55.092Z,11.41
2022-10-28T14:28:42.106Z,11.36
2022-10-28T14:31:27.097Z,11.32
2022-10-28T14:34:21.100Z,11.27
2022-10-28T14:38:10.100Z,11.22
2022-10-28T14:40:57.216Z,11.17
2022-10-28T14:43:59.086Z,11.11
2022-10-28T14:46:54.191Z,11.07
2022-10-28T14:49:44.109Z,10.99
2022-10-28T14:52:32.120Z,10.93
2022-10-28T14:55:41.117Z,10.87
2022-10-28T14:58:29.088Z,10.80
2022-10-28T15:01:05.236Z,10.73
2022-10-28T15:04:00.114Z,10.65
2022-10-28T15:06:42.227Z,10.60
2022-10-28T15:09:40.098Z,10.56
2022-10-28T15:12:24.124Z,10.51
2022-10-28T15:15:24.118Z,10.45
2022-10-28T15:17:57.189Z,10.43
2022-10-28T15:20:44.129Z,10.41
2022-10-28T15:23:25.137Z,10.39
2022-10-28T15:26:20.118Z,10.37
2022-10-28T15:29:02.894Z,10.37
2022-10-28T15:32:34.130Z,10.36
2022-10-28T15:35:45.123Z,10.34
2022-10-28T15:38:38.132Z,10.33
2022-10-28T15:41:29.200Z,10.34
2022-10-28T15:44:40.130Z,10.33
2022-10-28T15:47:32.978Z,10.32
2022-10-28T15:50:23.148Z,10.31
2022-10-28T15:53:05.151Z,10.29
2022-10-28T15:56:07.421Z,10.27
2022-10-28T15:59:07.143Z,10.22
2022-10-28T16:01:47.344Z,10.20
2022-10-28T16:04:40.139Z,10.15
2022-10-28T16:07:15.200Z,10.13
2022-10-28T16:10:02.168Z,10.12
2022-10-28T16:12:35.208Z,10.10
2022-10-28T16:15:23.131Z,10.09
2022-10-28T16:18:03.151Z,10.04
2022-10-28T16:20:51.192Z,10.00
2022-10-28T16:23:27.234Z,9.97
2022-10-28T16:26:07.163Z,9.97
2022-10-28T16:28:54.154Z,9.96
2022-10-28T16:31:41.160Z,9.94
2022-10-28T16:34:21.232Z,9.93
2022-10-28T16:37:08.159Z,9.93
2022-10-28T16:39:48.159Z,9.91
2022-10-28T16:42:42.136Z,9.89
2022-10-28T16:45:29.151Z,9.89
2022-10-28T16:48:02.278Z,9.85
2022-10-28T16:50:54.181Z,9.83
2022-10-28T16:53:28.227Z,9.80
2022-10-28T16:56:15.975Z,9.77
2022-10-28T16:58:57.175Z,9.77
2022-10-28T17:01:44.207Z,9.73
2022-10-28T17:04:24.185Z,9.71
2022-10-28T17:07:11.160Z,9.67
2022-10-28T17:09:44.250Z,9.64
2022-10-28T17:12:33.173Z,9.62
2022-10-28T17:15:06.240Z,9.62
2022-10-28T17:17:58.175Z,9.61
2022-10-28T17:20:31.249Z,9.62
2022-10-28T17:23:18.169Z,9.62
2022-10-28T17:25:58.166Z,9.58
2022-10-28T17:28:52.195Z,9.57
2022-10-28T17:31:46.179Z,9.57
2022-10-28T17:34:40.154Z,9.58
2022-10-28T17:37:27.180Z,9.53
2022-10-28T17:40:00.457Z,9.51
2022-10-28T17:42:47.184Z,9.49
2022-10-28T17:45:22.050Z,9.46
2022-10-28T17:48:09.193Z,9.42
2022-10-28T17:50:44.124Z,9.42
2022-10-28T17:53:38.182Z,9.40
2022-10-28T17:56:32.199Z,9.37
2022-10-28T17:59:26.190Z,9.35
2022-10-28T18:02:21.285Z,9.33
2022-10-28T18:05:08.188Z,9.33
2022-10-28T18:07:48.205Z,9.30
2022-10-28T18:10:42.192Z,9.27
2022-10-28T18:13:40.196Z,9.25
2022-10-28T18:16:20.279Z,9.23
2022-10-28T18:19:13.199Z,9.22
2022-10-28T18:21:46.348Z,9.23
2022-10-28T18:24:33.196Z,9.24
2022-10-28T18:27:06.291Z,9.22
2022-10-28T18:29:53.199Z,9.25
2022-10-28T18:32:26.270Z,9.27
2022-10-28T18:35:13.219Z,9.29
2022-10-28T18:37:46.271Z,9.32
2022-10-28T18:40:33.211Z,9.31
2022-10-28T18:43:06.269Z,9.32
2022-10-28T18:45:53.209Z,9.33
2022-10-28T18:48:26.297Z,9.35
2022-10-28T18:51:16.203Z,9.34
2022-10-28T18:53:52.367Z,9.31
2022-10-28T18:56:41.644Z,9.30
2022-10-28T18:59:17.332Z,9.28
2022-10-28T19:02:04.361Z,9.29
2022-10-28T19:04:37.293Z,9.27
2022-10-28T19:07:24.229Z,9.28
2022-10-28T19:09:57.291Z,9.25
2022-10-28T19:12:46.038Z,9.23
2022-10-28T19:15:29.228Z,9.20
2022-10-28T19:18:23.217Z,9.19
2022-10-28T19:21:21.232Z,9.14
2022-10-28T19:23:54.299Z,9.13
2022-10-28T19:26:41.225Z,9.11
2022-10-28T19:29:21.229Z,9.10
2022-10-28T19:32:15.303Z,9.06
2022-10-28T19:35:09.235Z,9.06
2022-10-28T19:37:59.225Z,9.04
2022-10-28T19:40:32.311Z,9.01
2022-10-28T19:43:19.240Z,8.98
2022-10-28T19:45:52.320Z,8.98
2022-10-28T19:48:39.247Z,8.98
2022-10-28T19:51:13.301Z,8.98
2022-10-28T19:54:10.234Z,8.97
2022-10-28T19:57:04.282Z,8.96
2022-10-28T19:59:51.263Z,8.96
2022-10-28T20:02:31.291Z,8.96
2022-10-28T20:05:25.252Z,8.93
2022-10-28T20:08:12.245Z,8.92
2022-10-28T20:10:53.228Z,8.91
2022-10-28T20:13:41.286Z,8.90
2022-10-28T20:16:26.234Z,8.92
2022-10-28T20:19:20.255Z,8.91
2022-10-28T20:22:14.250Z,8.90
2022-10-28T20:25:08.267Z,8.90
2022-10-28T20:27:56.745Z,8.89
2022-10-28T20:30:30.357Z,8.89
2022-10-28T20:33:17.268Z,8.86
2022-10-28T20:35:50.378Z,8.81
2022-10-28T20:38:37.267Z,8.83
2022-10-28T20:41:11.941Z,8.82
2022-10-28T20:43:58.276Z,8.83
2022-10-28T20:46:39.266Z,8.82
2022-10-28T20:49:33.242Z,8.80
2022-10-28T20:55:01.350Z,8.76
2022-10-28T20:57:48.269Z,8.77
2022-10-28T21:00:22.389Z,8.75
2022-10-28T21:03:09.369Z,8.75
2022-10-28T21:05:49.285Z,8.74
2022-10-28T21:08:43.269Z,8.72
2022-10-28T21:11:31.287Z,8.70
2022-10-28T21:14:06.339Z,8.69
2022-10-28T21:16:56.297Z,8.67
2022-10-28T21:19:36.282Z,8.65
2022-10-28T21:22:30.260Z,8.61
2022-10-28T21:25:17.274Z,8.59
2022-10-28T21:27:57.283Z,8.59
2022-10-28T21:30:51.288Z,8.58
2022-10-28T21:33:39.356Z,8.56
2022-10-28T21:36:31.286Z,8.55
2022-10-28T21:39:18.283Z,8.55
2022-10-28T21:41:58.276Z,8.52
2022-10-28T21:44:52.290Z,8.51
2022-10-28T21:47:39.280Z,8.50
2022-10-28T21:50:19.286Z,8.49
2022-10-28T21:53:13.292Z,8.44
2022-10-28T21:56:01.939Z,8.43
2022-10-28T21:58:35.363Z,8.41
2022-10-28T22:01:25.402Z,8.42
2022-10-28T22:04:08.311Z,8.43
2022-10-28T22:07:02.296Z,8.41
2022-10-28T22:09:49.304Z,8.40
2022-10-28T22:12:29.295Z,8.39
2022-10-28T22:15:23.313Z,8.36
2022-10-28T22:18:17.299Z,8.33
2022-10-28T22:21:09.297Z,8.31
2022-10-28T22:23:48.395Z,8.32
2022-10-28T22:26:37.296Z,8.30
2022-10-28T22:29:17.311Z,8.32
2022-10-28T22:32:11.293Z,8.31
2022-10-28T22:34:58.321Z,8.30
2022-10-28T22:37:31.384Z,8.30
2022-10-28T22:40:18.295Z,8.26
2022-10-28T22:42:51.375Z,8.27
2022-10-28T22:45:38.313Z,8.31
2022-10-28T22:48:18.316Z,8.34
2022-10-28T22:51:05.318Z,8.35
2022-10-28T22:53:38.978Z,8.36
2022-10-28T22:56:28.318Z,8.37
2022-10-28T22:59:03.383Z,8.41
2022-10-28T23:01:50.362Z,8.43
2022-10-28T23:04:23.408Z,8.42
2022-10-28T23:07:10.342Z,8.43
2022-10-28T23:09:43.396Z,8.44
2022-10-28T23:12:30.325Z,8.44
2022-10-28T23:15:10.330Z,8.46
2022-10-28T23:18:05.326Z,8.47
2022-10-28T23:20:52.354Z,8.43
2022-10-28T23:23:25.389Z,8.39
2022-10-28T23:26:12.324Z,8.37
2022-10-28T23:28:46.406Z,8.37
2022-10-28T23:31:33.324Z,8.35
2022-10-28T23:34:13.350Z,8.36
2022-10-28T23:37:00.329Z,8.36
2022-10-28T23:39:33.491Z,8.36
2022-10-28T23:42:20.347Z,8.34
2022-10-28T23:45:00.332Z,8.35
2022-10-28T23:47:54.357Z,8.35
2022-10-28T23:50:41.329Z,8.35
2022-10-28T23:53:21.411Z,8.34
2022-10-28T23:56:08.329Z,8.33
2022-10-28T23:58:41.420Z,8.31
